Thunder radar more information blitzortung!


Radar de pluja more information rain snow radar


Visita la nostra xarxa de llocs de meteo:

Template documentation
and downloads

And another site



No particular awareness of the weather is required.    There are no Weather-warnings

Pagina Historial Weather Underground text

Diari Resum Desembre 5, 2017 Unitats:  Mètric    Imperial   Tant
« Previous Dia
SegĂźent Dia »
Diari Setmana Mensual Anual Personalitzada
  Maxima: Minima: Media:
Temperatura: 10.0 °C 0.0 °C 6.6 °C
Punt de rosada: 0.6 °C -8.7 °C -5.4 °C
Humitat: 66 % 31 % 44 %
Wind Speed: 9.3 km/h 0.0 km/h 2.5 km/h
RĂ fegues de vent: 9.3 km/h - -
Vent:- - ESE
Pression baro: 1035.8 hPa 1023.9 hPa -
Precipitacions: 0.0 mm    
Historical Graphs
 
 
Dades de taula per Desembre 5, 2017
Temps Temperatura Punt de rosada Pression baro Vent Wind Speed RĂ fegues de vent Humitat Rainfall Rate (Hourly)
00:00 7.4 °C -8.7 °C 1023.9 hPa East 3.2 km/h 3.2 km/h 31 % 0.0 mm
00:05 7.4 °C -8.7 °C 1023.9 hPa East 3.2 km/h 3.2 km/h 31 % 0.0 mm
00:15 0.4 °C -7.8 °C 1034.8 hPa Calm     54 % 0.0 mm
00:20 7.4 °C -8.7 °C 1023.9 hPa East 3.2 km/h 3.2 km/h 31 % 0.0 mm
00:25 7.4 °C -8.7 °C 1023.9 hPa East 3.2 km/h 3.2 km/h 31 % 0.0 mm
00:30 7.4 °C -8.7 °C 1023.9 hPa East 3.2 km/h 3.2 km/h 31 % 0.0 mm
00:35 7.4 °C -8.7 °C 1023.9 hPa East 3.2 km/h 3.2 km/h 31 % 0.0 mm
00:40 7.4 °C -8.7 °C 1023.9 hPa East 3.2 km/h 3.2 km/h 31 % 0.0 mm
00:45 7.4 °C -8.7 °C 1023.9 hPa East 3.2 km/h 3.2 km/h 31 % 0.0 mm
00:50 7.4 °C -8.7 °C 1023.9 hPa East 3.2 km/h 3.2 km/h 31 % 0.0 mm
00:55 7.4 °C -8.7 °C 1023.9 hPa East 3.2 km/h 3.2 km/h 31 % 0.0 mm
01:00 7.4 °C -8.7 °C 1023.9 hPa East 3.2 km/h 3.2 km/h 31 % 0.0 mm
01:05 7.4 °C -8.7 °C 1023.9 hPa East 3.2 km/h 3.2 km/h 31 % 0.0 mm
01:10 7.4 °C -8.7 °C 1023.9 hPa East 3.2 km/h 3.2 km/h 31 % 0.0 mm
01:15 7.4 °C -8.7 °C 1023.9 hPa East 3.2 km/h 3.2 km/h 31 % 0.0 mm
01:20 7.4 °C -8.7 °C 1023.9 hPa East 3.2 km/h 3.2 km/h 31 % 0.0 mm
01:25 7.4 °C -8.7 °C 1023.9 hPa East 3.2 km/h 3.2 km/h 31 % 0.0 mm
01:30 7.4 °C -8.7 °C 1023.9 hPa East 3.2 km/h 3.2 km/h 31 % 0.0 mm
01:35 7.4 °C -8.7 °C 1023.9 hPa East 3.2 km/h 3.2 km/h 31 % 0.0 mm
01:40 7.4 °C -8.7 °C 1023.9 hPa East 3.2 km/h 3.2 km/h 31 % 0.0 mm
01:45 7.4 °C -8.7 °C 1023.9 hPa East 3.2 km/h 3.2 km/h 31 % 0.0 mm
01:50 7.4 °C -8.7 °C 1023.9 hPa East 3.2 km/h 3.2 km/h 31 % 0.0 mm
01:55 7.4 °C -8.7 °C 1023.9 hPa East 3.2 km/h 3.2 km/h 31 % 0.0 mm
02:01 7.4 °C -8.7 °C 1023.9 hPa East 3.2 km/h 3.2 km/h 31 % 0.0 mm
02:05 0.5 °C -7.1 °C 1035.8 hPa NW 3.2 km/h 3.2 km/h 57 % 0.0 mm
02:10 7.4 °C -8.7 °C 1023.9 hPa East 3.2 km/h 3.2 km/h 31 % 0.0 mm
02:15 7.4 °C -8.7 °C 1023.9 hPa East 3.2 km/h 3.2 km/h 31 % 0.0 mm
02:20 7.4 °C -8.7 °C 1023.9 hPa East 3.2 km/h 3.2 km/h 31 % 0.0 mm
02:25 0.7 °C -6.6 °C 1035.8 hPa NNW 1.6 km/h 3.2 km/h 58 % 0.0 mm
02:30 7.4 °C -8.7 °C 1023.9 hPa East 3.2 km/h 3.2 km/h 31 % 0.0 mm
02:35 1.0 °C -6.3 °C 1035.8 hPa North 1.6 km/h 3.2 km/h 58 % 0.0 mm
02:40 7.4 °C -8.7 °C 1023.9 hPa East 3.2 km/h 3.2 km/h 31 % 0.0 mm
02:45 7.4 °C -8.7 °C 1023.9 hPa East 3.2 km/h 3.2 km/h 31 % 0.0 mm
02:50 7.4 °C -8.7 °C 1023.9 hPa East 3.2 km/h 3.2 km/h 31 % 0.0 mm
02:55 7.4 °C -8.7 °C 1023.9 hPa East 3.2 km/h 3.2 km/h 31 % 0.0 mm
03:00 7.4 °C -8.7 °C 1023.9 hPa East 3.2 km/h 3.2 km/h 31 % 0.0 mm
03:05 7.4 °C -8.7 °C 1023.9 hPa East 3.2 km/h 3.2 km/h 31 % 0.0 mm
03:10 7.4 °C -8.7 °C 1023.9 hPa East 3.2 km/h 3.2 km/h 31 % 0.0 mm
03:15 7.4 °C -8.7 °C 1023.9 hPa East 3.2 km/h 3.2 km/h 31 % 0.0 mm
03:20 7.4 °C -8.7 °C 1023.9 hPa East 3.2 km/h 3.2 km/h 31 % 0.0 mm
03:25 7.4 °C -8.7 °C 1023.9 hPa East 3.2 km/h 3.2 km/h 31 % 0.0 mm
03:30 7.4 °C -8.7 °C 1023.9 hPa East 3.2 km/h 3.2 km/h 31 % 0.0 mm
03:35 7.4 °C -8.7 °C 1023.9 hPa East 3.2 km/h 3.2 km/h 31 % 0.0 mm
03:40 7.4 °C -8.7 °C 1023.9 hPa East 3.2 km/h 3.2 km/h 31 % 0.0 mm
03:45 7.4 °C -8.7 °C 1023.9 hPa East 3.2 km/h 3.2 km/h 31 % 0.0 mm
03:50 7.4 °C -8.7 °C 1023.9 hPa East 3.2 km/h 3.2 km/h 31 % 0.0 mm
03:55 7.4 °C -8.7 °C 1023.9 hPa East 3.2 km/h 3.2 km/h 31 % 0.0 mm
04:05 7.4 °C -8.7 °C 1023.9 hPa East 3.2 km/h 3.2 km/h 31 % 0.0 mm
04:10 7.4 °C -8.7 °C 1023.9 hPa East 3.2 km/h 3.2 km/h 31 % 0.0 mm
04:15 7.4 °C -8.7 °C 1023.9 hPa East 3.2 km/h 3.2 km/h 31 % 0.0 mm
04:20 7.4 °C -8.7 °C 1023.9 hPa East 3.2 km/h 3.2 km/h 31 % 0.0 mm
04:25 7.4 °C -8.7 °C 1023.9 hPa East 3.2 km/h 3.2 km/h 31 % 0.0 mm
04:30 7.4 °C -8.7 °C 1023.9 hPa East 3.2 km/h 3.2 km/h 31 % 0.0 mm
04:35 7.4 °C -8.7 °C 1023.9 hPa East 3.2 km/h 3.2 km/h 31 % 0.0 mm
04:40 7.4 °C -8.7 °C 1023.9 hPa East 3.2 km/h 3.2 km/h 31 % 0.0 mm
04:45 7.4 °C -8.7 °C 1023.9 hPa East 3.2 km/h 3.2 km/h 31 % 0.0 mm
04:50 7.4 °C -8.7 °C 1023.9 hPa East 3.2 km/h 3.2 km/h 31 % 0.0 mm
04:55 7.4 °C -8.7 °C 1023.9 hPa East 3.2 km/h 3.2 km/h 31 % 0.0 mm
05:00 7.4 °C -8.7 °C 1023.9 hPa East 3.2 km/h 3.2 km/h 31 % 0.0 mm
05:05 7.4 °C -8.7 °C 1023.9 hPa East 3.2 km/h 3.2 km/h 31 % 0.0 mm
05:10 7.4 °C -8.7 °C 1023.9 hPa East 3.2 km/h 3.2 km/h 31 % 0.0 mm
05:15 7.4 °C -8.7 °C 1023.9 hPa East 3.2 km/h 3.2 km/h 31 % 0.0 mm
05:20 7.4 °C -8.7 °C 1023.9 hPa East 3.2 km/h 3.2 km/h 31 % 0.0 mm
05:25 7.4 °C -8.7 °C 1023.9 hPa East 3.2 km/h 3.2 km/h 31 % 0.0 mm
05:35 7.4 °C -8.7 °C 1023.9 hPa East 3.2 km/h 3.2 km/h 31 % 0.0 mm
05:40 7.4 °C -8.7 °C 1023.9 hPa East 3.2 km/h 3.2 km/h 31 % 0.0 mm
05:45 7.4 °C -8.7 °C 1023.9 hPa East 3.2 km/h 3.2 km/h 31 % 0.0 mm
05:50 7.4 °C -8.7 °C 1023.9 hPa East 3.2 km/h 3.2 km/h 31 % 0.0 mm
05:55 7.4 °C -8.7 °C 1023.9 hPa East 3.2 km/h 3.2 km/h 31 % 0.0 mm
06:05 7.4 °C -8.7 °C 1023.9 hPa East 3.2 km/h 3.2 km/h 31 % 0.0 mm
06:10 7.4 °C -8.7 °C 1023.9 hPa East 3.2 km/h 3.2 km/h 31 % 0.0 mm
06:15 7.4 °C -8.7 °C 1023.9 hPa East 3.2 km/h 3.2 km/h 31 % 0.0 mm
06:20 7.4 °C -8.7 °C 1023.9 hPa East 3.2 km/h 3.2 km/h 31 % 0.0 mm
06:25 7.4 °C -8.7 °C 1023.9 hPa East 3.2 km/h 3.2 km/h 31 % 0.0 mm
06:30 7.4 °C -8.7 °C 1023.9 hPa East 3.2 km/h 3.2 km/h 31 % 0.0 mm
06:35 7.4 °C -8.7 °C 1023.9 hPa East 3.2 km/h 3.2 km/h 31 % 0.0 mm
06:40 7.4 °C -8.7 °C 1023.9 hPa East 3.2 km/h 3.2 km/h 31 % 0.0 mm
06:45 7.4 °C -8.7 °C 1023.9 hPa East 3.2 km/h 3.2 km/h 31 % 0.0 mm
06:50 7.4 °C -8.7 °C 1023.9 hPa East 3.2 km/h 3.2 km/h 31 % 0.0 mm
06:55 7.4 °C -8.7 °C 1023.9 hPa East 3.2 km/h 3.2 km/h 31 % 0.0 mm
07:00 7.4 °C -8.7 °C 1023.9 hPa East 3.2 km/h 3.2 km/h 31 % 0.0 mm
07:05 7.4 °C -8.7 °C 1023.9 hPa East 3.2 km/h 3.2 km/h 31 % 0.0 mm
07:10 7.4 °C -8.7 °C 1023.9 hPa East 3.2 km/h 3.2 km/h 31 % 0.0 mm
07:15 7.4 °C -8.7 °C 1023.9 hPa East 3.2 km/h 3.2 km/h 31 % 0.0 mm
07:20 7.4 °C -8.7 °C 1023.9 hPa East 3.2 km/h 3.2 km/h 31 % 0.0 mm
07:25 7.4 °C -8.7 °C 1023.9 hPa East 3.2 km/h 3.2 km/h 31 % 0.0 mm
07:30 7.4 °C -8.7 °C 1023.9 hPa East 3.2 km/h 3.2 km/h 31 % 0.0 mm
07:35 7.4 °C -8.7 °C 1023.9 hPa East 3.2 km/h 3.2 km/h 31 % 0.0 mm
07:40 7.4 °C -8.7 °C 1023.9 hPa East 3.2 km/h 3.2 km/h 31 % 0.0 mm
07:45 7.4 °C -8.7 °C 1023.9 hPa East 3.2 km/h 3.2 km/h 31 % 0.0 mm
07:50 7.4 °C -8.7 °C 1023.9 hPa East 3.2 km/h 3.2 km/h 31 % 0.0 mm
07:55 7.4 °C -8.7 °C 1023.9 hPa East 3.2 km/h 3.2 km/h 31 % 0.0 mm
08:00 7.4 °C -8.7 °C 1023.9 hPa East 3.2 km/h 3.2 km/h 31 % 0.0 mm
08:05 7.4 °C -8.7 °C 1023.9 hPa East 3.2 km/h 3.2 km/h 31 % 0.0 mm
08:10 7.4 °C -8.7 °C 1023.9 hPa East 3.2 km/h 3.2 km/h 31 % 0.0 mm
08:15 7.4 °C -8.7 °C 1023.9 hPa East 3.2 km/h 3.2 km/h 31 % 0.0 mm
08:20 7.4 °C -8.7 °C 1023.9 hPa East 3.2 km/h 3.2 km/h 31 % 0.0 mm
08:25 7.4 °C -8.7 °C 1023.9 hPa East 3.2 km/h 3.2 km/h 31 % 0.0 mm
08:30 7.4 °C -8.7 °C 1023.9 hPa East 3.2 km/h 3.2 km/h 31 % 0.0 mm
08:35 7.4 °C -8.7 °C 1023.9 hPa East 3.2 km/h 3.2 km/h 31 % 0.0 mm
08:40 7.4 °C -8.7 °C 1023.9 hPa East 3.2 km/h 3.2 km/h 31 % 0.0 mm
08:45 7.4 °C -8.7 °C 1023.9 hPa East 3.2 km/h 3.2 km/h 31 % 0.0 mm
08:50 7.4 °C -8.7 °C 1023.9 hPa East 3.2 km/h 3.2 km/h 31 % 0.0 mm
08:55 7.4 °C -8.7 °C 1023.9 hPa East 3.2 km/h 3.2 km/h 31 % 0.0 mm
09:00 7.4 °C -8.7 °C 1023.9 hPa East 3.2 km/h 3.2 km/h 31 % 0.0 mm
09:05 7.4 °C -8.7 °C 1023.9 hPa East 3.2 km/h 3.2 km/h 31 % 0.0 mm
09:10 7.4 °C -8.7 °C 1023.9 hPa East 3.2 km/h 3.2 km/h 31 % 0.0 mm
09:15 7.4 °C -8.7 °C 1023.9 hPa East 3.2 km/h 3.2 km/h 31 % 0.0 mm
09:20 7.4 °C -8.7 °C 1023.9 hPa East 3.2 km/h 3.2 km/h 31 % 0.0 mm
09:25 7.4 °C -8.7 °C 1023.9 hPa East 3.2 km/h 3.2 km/h 31 % 0.0 mm
09:30 7.4 °C -8.7 °C 1023.9 hPa East 3.2 km/h 3.2 km/h 31 % 0.0 mm
09:35 7.4 °C -8.7 °C 1023.9 hPa East 3.2 km/h 3.2 km/h 31 % 0.0 mm
09:40 7.4 °C -8.7 °C 1023.9 hPa East 3.2 km/h 3.2 km/h 31 % 0.0 mm
09:45 7.4 °C -8.7 °C 1023.9 hPa East 3.2 km/h 3.2 km/h 31 % 0.0 mm
09:50 7.4 °C -8.7 °C 1023.9 hPa East 3.2 km/h 3.2 km/h 31 % 0.0 mm
09:55 7.4 °C -8.7 °C 1023.9 hPa East 3.2 km/h 3.2 km/h 31 % 0.0 mm
10:00 7.4 °C -8.7 °C 1023.9 hPa East 3.2 km/h 3.2 km/h 31 % 0.0 mm
10:05 7.4 °C -8.7 °C 1023.9 hPa East 3.2 km/h 3.2 km/h 31 % 0.0 mm
10:10 7.4 °C -8.7 °C 1023.9 hPa East 3.2 km/h 3.2 km/h 31 % 0.0 mm
10:15 7.4 °C -8.7 °C 1023.9 hPa East 3.2 km/h 3.2 km/h 31 % 0.0 mm
10:20 7.4 °C -8.7 °C 1023.9 hPa East 3.2 km/h 3.2 km/h 31 % 0.0 mm
10:25 7.4 °C -8.7 °C 1023.9 hPa East 3.2 km/h 3.2 km/h 31 % 0.0 mm
10:30 7.4 °C -8.7 °C 1023.9 hPa East 3.2 km/h 3.2 km/h 31 % 0.0 mm
10:35 7.4 °C -8.7 °C 1023.9 hPa East 3.2 km/h 3.2 km/h 31 % 0.0 mm
10:40 7.4 °C -8.7 °C 1023.9 hPa East 3.2 km/h 3.2 km/h 31 % 0.0 mm
10:45 7.4 °C -8.7 °C 1023.9 hPa East 3.2 km/h 3.2 km/h 31 % 0.0 mm
10:50 7.4 °C -8.7 °C 1023.9 hPa East 3.2 km/h 3.2 km/h 31 % 0.0 mm
10:55 7.4 °C -8.7 °C 1023.9 hPa East 3.2 km/h 3.2 km/h 31 % 0.0 mm
11:00 7.4 °C -8.7 °C 1023.9 hPa East 3.2 km/h 3.2 km/h 31 % 0.0 mm
11:05 7.4 °C -8.7 °C 1023.9 hPa East 3.2 km/h 3.2 km/h 31 % 0.0 mm
11:10 7.4 °C -8.7 °C 1023.9 hPa East 3.2 km/h 3.2 km/h 31 % 0.0 mm
11:15 7.4 °C -8.7 °C 1023.9 hPa East 3.2 km/h 3.2 km/h 31 % 0.0 mm
11:20 7.4 °C -8.7 °C 1023.9 hPa East 3.2 km/h 3.2 km/h 31 % 0.0 mm
11:25 7.4 °C -8.7 °C 1023.9 hPa East 3.2 km/h 3.2 km/h 31 % 0.0 mm
11:30 7.4 °C -8.7 °C 1023.9 hPa East 3.2 km/h 3.2 km/h 31 % 0.0 mm
11:35 7.4 °C -8.7 °C 1023.9 hPa East 3.2 km/h 3.2 km/h 31 % 0.0 mm
11:40 7.4 °C -8.7 °C 1023.9 hPa East 3.2 km/h 3.2 km/h 31 % 0.0 mm
11:45 7.4 °C -8.7 °C 1023.9 hPa East 3.2 km/h 3.2 km/h 31 % 0.0 mm
11:50 7.4 °C -8.7 °C 1023.9 hPa East 3.2 km/h 3.2 km/h 31 % 0.0 mm
11:55 7.4 °C -8.7 °C 1023.9 hPa East 3.2 km/h 3.2 km/h 31 % 0.0 mm
12:00 7.4 °C -8.7 °C 1023.9 hPa East 3.2 km/h 3.2 km/h 31 % 0.0 mm
12:05 7.4 °C -8.7 °C 1023.9 hPa East 3.2 km/h 3.2 km/h 31 % 0.0 mm
12:10 7.4 °C -8.7 °C 1023.9 hPa East 3.2 km/h 3.2 km/h 31 % 0.0 mm
12:15 7.4 °C -8.7 °C 1023.9 hPa East 3.2 km/h 3.2 km/h 31 % 0.0 mm
12:20 7.4 °C -8.7 °C 1023.9 hPa East 3.2 km/h 3.2 km/h 31 % 0.0 mm
12:25 7.4 °C -8.7 °C 1023.9 hPa East 3.2 km/h 3.2 km/h 31 % 0.0 mm
12:30 7.4 °C -8.7 °C 1023.9 hPa East 3.2 km/h 3.2 km/h 31 % 0.0 mm
12:35 7.4 °C -8.7 °C 1023.9 hPa East 3.2 km/h 3.2 km/h 31 % 0.0 mm
12:40 7.4 °C -8.7 °C 1023.9 hPa East 3.2 km/h 3.2 km/h 31 % 0.0 mm
12:45 7.4 °C -8.7 °C 1023.9 hPa East 3.2 km/h 3.2 km/h 31 % 0.0 mm
12:55 7.4 °C -8.7 °C 1023.9 hPa East 3.2 km/h 3.2 km/h 31 % 0.0 mm
13:00 7.4 °C -8.7 °C 1023.9 hPa East 3.2 km/h 3.2 km/h 31 % 0.0 mm
13:15 7.9 °C -0.8 °C 1035.8 hPa NNE 5.8 km/h 5.8 km/h 54 % 0.0 mm
13:20 8.1 °C -0.7 °C 1035.8 hPa NE 9.3 km/h 9.3 km/h 54 % 0.0 mm
13:25 8.2 °C -0.6 °C 1035.8 hPa ENE 4.2 km/h 4.2 km/h 54 % 0.0 mm
13:30 8.5 °C -0.3 °C 1035.8 hPa NNE 4.7 km/h 4.7 km/h 54 % 0.0 mm
13:35 8.6 °C -0.2 °C 1035.8 hPa ESE 9.3 km/h 9.3 km/h 54 % 0.0 mm
13:40 8.7 °C -0.1 °C 1035.8 hPa ENE 5.6 km/h 5.6 km/h 54 % 0.0 mm
13:45 8.7 °C -0.3 °C 1034.8 hPa NNE 5.6 km/h 5.6 km/h 53 % 0.0 mm
13:50 8.7 °C -0.3 °C 1034.8 hPa ENE 3.7 km/h 3.7 km/h 53 % 0.0 mm
13:55 8.8 °C -0.3 °C 1034.8 hPa WNW 3.9 km/h 3.9 km/h 53 % 0.0 mm
14:00 8.9 °C -0.2 °C 1034.8 hPa NNE 7.4 km/h 7.4 km/h 53 % 0.0 mm
14:05 9.0 °C -0.1 °C 1034.8 hPa WNW 3.7 km/h 3.7 km/h 53 % 0.0 mm
14:10 9.0 °C -0.1 °C 1034.8 hPa NNE 3.7 km/h 3.7 km/h 53 % 0.0 mm
14:15 9.2 °C 0.1 °C 1034.8 hPa North 4.7 km/h 4.7 km/h 53 % 0.0 mm
14:20 9.2 °C 0.1 °C 1034.8 hPa NNE 3.7 km/h 3.7 km/h 53 % 0.0 mm
14:25 9.3 °C 0.2 °C 1034.8 hPa ENE 3.9 km/h 3.9 km/h 53 % 0.0 mm
14:30 9.4 °C 0.3 °C 1034.8 hPa NNE 2.6 km/h 2.6 km/h 53 % 0.0 mm
14:35 9.4 °C 0.3 °C 1034.8 hPa North 3.7 km/h 3.7 km/h 53 % 0.0 mm
14:40 9.4 °C 0.3 °C 1034.8 hPa ENE 3.7 km/h 3.7 km/h 53 % 0.0 mm
14:45 9.4 °C 0.0 °C 1034.8 hPa NE 7.4 km/h 7.4 km/h 52 % 0.0 mm
14:50 9.4 °C 0.0 °C 1034.8 hPa NNE 3.7 km/h 3.7 km/h 52 % 0.0 mm
14:55 9.6 °C 0.2 °C 1034.8 hPa NNW 2.3 km/h 2.3 km/h 52 % 0.0 mm
15:00 9.6 °C 0.2 °C 1034.8 hPa NNW 2.3 km/h 2.3 km/h 52 % 0.0 mm
15:05 9.7 °C 0.3 °C 1034.8 hPa North 3.7 km/h 3.7 km/h 52 % 0.0 mm
15:10 9.8 °C 0.4 °C 1034.8 hPa NE 3.7 km/h 3.7 km/h 52 % 0.0 mm
15:15 9.8 °C 0.4 °C 1033.7 hPa NE 3.7 km/h 3.7 km/h 52 % 0.0 mm
15:20 9.7 °C 0.3 °C 1033.7 hPa NNW 3.7 km/h 3.7 km/h 52 % 0.0 mm
15:25 9.8 °C 0.4 °C 1033.7 hPa NNE 4.7 km/h 4.7 km/h 52 % 0.0 mm
15:30 9.8 °C 0.4 °C 1032.7 hPa NE 3.7 km/h 3.7 km/h 52 % 0.0 mm
15:35 9.9 °C 0.5 °C 1032.7 hPa NE 1.9 km/h 1.9 km/h 52 % 0.0 mm
15:40 9.9 °C 0.5 °C 1032.7 hPa NE 4.2 km/h 4.2 km/h 52 % 0.0 mm
15:45 9.9 °C 0.5 °C 1033.7 hPa NW 3.7 km/h 3.7 km/h 52 % 0.0 mm
15:50 10.0 °C 0.6 °C 1033.7 hPa NNW 1.9 km/h   52 % 0.0 mm
15:51 10.0 °C 0.6 °C 1033.7 hPa NNW 1.9 km/h   52 % 0.0 mm
15:56 9.9 °C 0.5 °C 1033.7 hPa NNW 2.6 km/h 2.6 km/h 52 % 0.0 mm
16:01 10.0 °C 0.6 °C 1033.7 hPa Calm     52 % 0.0 mm
16:06 10.0 °C 0.6 °C 1033.7 hPa ENE 1.9 km/h   52 % 0.0 mm
16:11 9.9 °C 0.5 °C 1033.7 hPa North 1.9 km/h 1.9 km/h 52 % 0.0 mm
16:16 9.9 °C 0.5 °C 1033.7 hPa NNE 2.3 km/h 2.3 km/h 52 % 0.0 mm
16:21 9.9 °C 0.5 °C 1033.7 hPa Calm     52 % 0.0 mm
16:26 9.9 °C 0.5 °C 1033.7 hPa NNW 2.6 km/h 2.6 km/h 52 % 0.0 mm
16:31 9.9 °C 0.5 °C 1033.7 hPa NNE 1.9 km/h   52 % 0.0 mm
16:36 9.8 °C 0.4 °C 1033.7 hPa NNE 1.9 km/h 1.9 km/h 52 % 0.0 mm
16:41 9.7 °C 0.3 °C 1033.7 hPa NNW 1.9 km/h   52 % 0.0 mm
16:46 9.7 °C 0.3 °C 1033.7 hPa Calm     52 % 0.0 mm
16:51 9.7 °C 0.3 °C 1033.7 hPa North 2.6 km/h 2.6 km/h 52 % 0.0 mm
16:56 9.6 °C 0.2 °C 1033.7 hPa NNE 1.9 km/h 1.9 km/h 52 % 0.0 mm
17:01 9.4 °C 0.0 °C 1033.7 hPa Calm     52 % 0.0 mm
17:06 9.3 °C -0.1 °C 1033.7 hPa NW 1.9 km/h   52 % 0.0 mm
17:11 9.2 °C -0.2 °C 1033.7 hPa NW 1.9 km/h   52 % 0.0 mm
17:16 9.1 °C -0.3 °C 1033.7 hPa Calm     52 % 0.0 mm
17:21 8.9 °C -0.4 °C 1033.7 hPa Calm     52 % 0.0 mm
17:26 8.8 °C -0.6 °C 1033.7 hPa WNW 1.9 km/h   52 % 0.0 mm
17:31 8.6 °C -0.7 °C 1033.7 hPa Calm     52 % 0.0 mm
17:36 8.5 °C -0.8 °C 1033.7 hPa Calm     52 % 0.0 mm
17:41 8.4 °C -0.9 °C 1033.7 hPa Calm     52 % 0.0 mm
17:46 8.3 °C -1.0 °C 1033.7 hPa NW 1.9 km/h   52 % 0.0 mm
17:51 8.2 °C -1.1 °C 1033.7 hPa NW 2.3 km/h   52 % 0.0 mm
17:56 8.1 °C -1.2 °C 1033.7 hPa SW 1.9 km/h 1.9 km/h 52 % 0.0 mm
18:01 8.0 °C -1.3 °C 1033.7 hPa Calm     52 % 0.0 mm
18:06 7.9 °C -1.4 °C 1033.7 hPa Calm     52 % 0.0 mm
18:11 7.8 °C -1.4 °C 1033.7 hPa Calm     52 % 0.0 mm
18:16 7.9 °C -1.4 °C 1033.7 hPa Calm     52 % 0.0 mm
18:21 7.8 °C -1.4 °C 1033.7 hPa Calm     52 % 0.0 mm
18:25 2.4 °C -4.6 °C 1034.8 hPa Calm     60 % 0.0 mm
18:26 7.8 °C -1.4 °C 1033.7 hPa WSW 2.6 km/h 2.6 km/h 52 % 0.0 mm
18:31 7.8 °C -1.4 °C 1032.7 hPa Calm     52 % 0.0 mm
18:35 2.4 °C -4.6 °C 1034.8 hPa Calm     60 % 0.0 mm
18:36 7.7 °C -1.6 °C 1032.7 hPa WSW 2.3 km/h   52 % 0.0 mm
18:41 7.6 °C -1.7 °C 1032.7 hPa Calm     52 % 0.0 mm
18:45 2.4 °C -4.4 °C 1034.8 hPa Calm     61 % 0.0 mm
18:46 7.4 °C -1.8 °C 1033.7 hPa WSW 1.9 km/h   52 % 0.0 mm
18:51 7.3 °C -1.9 °C 1033.7 hPa South 3.9 km/h 3.9 km/h 52 % 0.0 mm
18:55 2.2 °C -4.6 °C 1034.8 hPa Calm     61 % 0.0 mm
18:56 7.2 °C -2.0 °C 1033.7 hPa Calm     52 % 0.0 mm
19:01 7.1 °C -2.1 °C 1033.7 hPa SW 1.9 km/h   52 % 0.0 mm
19:05 2.1 °C -4.7 °C 1034.8 hPa Calm     61 % 0.0 mm
19:06 7.1 °C -2.1 °C 1033.7 hPa SW 3.7 km/h 3.7 km/h 52 % 0.0 mm
19:11 7.2 °C -2.0 °C 1033.7 hPa West 3.7 km/h 3.7 km/h 52 % 0.0 mm
19:15 2.0 °C -4.7 °C 1034.8 hPa Calm     61 % 0.0 mm
19:16 7.2 °C -2.0 °C 1033.7 hPa West 3.7 km/h 3.7 km/h 52 % 0.0 mm
19:21 7.2 °C -2.0 °C 1033.7 hPa WSW 3.7 km/h 3.7 km/h 52 % 0.0 mm
19:25 2.1 °C -4.4 °C 1034.8 hPa Calm     62 % 0.0 mm
19:26 7.1 °C -2.4 °C 1033.7 hPa West 3.7 km/h 3.7 km/h 51 % 0.0 mm
19:31 7.0 °C -2.4 °C 1034.8 hPa WSW 3.7 km/h 3.7 km/h 51 % 0.0 mm
19:35 1.9 °C -4.6 °C 1034.8 hPa Calm     62 % 0.0 mm
19:36 6.9 °C -2.6 °C 1034.8 hPa SW 3.7 km/h 3.7 km/h 51 % 0.0 mm
19:41 6.7 °C -2.7 °C 1034.8 hPa SW 3.7 km/h 3.7 km/h 51 % 0.0 mm
19:45 1.8 °C -4.7 °C 1034.8 hPa Calm     62 % 0.0 mm
19:46 6.5 °C -2.7 °C 1033.7 hPa Calm     52 % 0.0 mm
19:51 6.4 °C -2.8 °C 1033.7 hPa Calm     52 % 0.0 mm
19:55 1.7 °C -4.8 °C 1033.7 hPa Calm     62 % 0.0 mm
19:56 6.3 °C -2.8 °C 1033.7 hPa Calm     52 % 0.0 mm
20:01 6.2 °C -2.9 °C 1033.7 hPa Calm     52 % 0.0 mm
20:05 1.6 °C -4.9 °C 1034.8 hPa Calm     62 % 0.0 mm
20:06 6.2 °C -2.9 °C 1033.7 hPa WNW 2.3 km/h 2.3 km/h 52 % 0.0 mm
20:11 6.1 °C -3.1 °C 1033.7 hPa WNW 2.3 km/h 2.3 km/h 52 % 0.0 mm
20:15 1.5 °C -5.0 °C 1034.8 hPa SSW 1.6 km/h 1.6 km/h 62 % 0.0 mm
20:16 6.2 °C -2.9 °C 1034.8 hPa Calm     52 % 0.0 mm
20:21 6.0 °C -3.1 °C 1034.8 hPa NNW 1.9 km/h 1.9 km/h 52 % 0.0 mm
20:25 1.4 °C -5.1 °C 1033.7 hPa SSW 1.6 km/h 3.2 km/h 62 % 0.0 mm
20:26 6.0 °C -3.1 °C 1034.8 hPa NNE 1.9 km/h 2.3 km/h 52 % 0.0 mm
20:31 6.0 °C -3.1 °C 1034.8 hPa Calm     52 % 0.0 mm
20:35 1.3 °C -5.2 °C 1033.7 hPa SW 1.6 km/h 3.2 km/h 62 % 0.0 mm
20:36 5.9 °C -3.2 °C 1034.8 hPa NNE 1.9 km/h   52 % 0.0 mm
20:41 5.9 °C -3.2 °C 1034.8 hPa Calm     52 % 0.0 mm
20:45 1.3 °C -5.2 °C 1033.7 hPa Calm   3.2 km/h 62 % 0.0 mm
20:46 6.0 °C -3.1 °C 1034.8 hPa Calm     52 % 0.0 mm
20:51 6.1 °C -3.1 °C 1034.8 hPa NNE 1.9 km/h   52 % 0.0 mm
20:55 1.3 °C -5.0 °C 1033.7 hPa WSW 3.2 km/h 3.2 km/h 63 % 0.0 mm
20:56 6.1 °C -3.1 °C 1034.8 hPa Calm     52 % 0.0 mm
21:01 6.1 °C -2.8 °C 1034.8 hPa Calm     53 % 0.0 mm
21:05 1.3 °C -5.0 °C 1033.7 hPa Calm   4.8 km/h 63 % 0.0 mm
21:06 6.1 °C -2.8 °C 1034.8 hPa NNW 2.6 km/h   53 % 0.0 mm
21:11 6.0 °C -2.9 °C 1034.8 hPa NNW 1.9 km/h   53 % 0.0 mm
21:15 1.4 °C -4.9 °C 1033.7 hPa Calm   3.2 km/h 63 % 0.0 mm
21:16 5.9 °C -2.9 °C 1034.8 hPa Calm     53 % 0.0 mm
21:21 5.7 °C -3.2 °C 1034.8 hPa WNW 3.7 km/h 3.7 km/h 53 % 0.0 mm
21:25 1.2 °C -5.1 °C 1033.7 hPa Calm   1.6 km/h 63 % 0.0 mm
21:26 5.4 °C -3.4 °C 1034.8 hPa West 3.7 km/h 3.7 km/h 53 % 0.0 mm
21:31 5.1 °C -3.7 °C 1034.8 hPa WSW 3.7 km/h 3.7 km/h 53 % 0.0 mm
21:35 1.0 °C -5.3 °C 1033.7 hPa Calm   3.2 km/h 63 % 0.0 mm
21:36 5.1 °C -3.7 °C 1034.8 hPa SW 3.7 km/h 3.7 km/h 53 % 0.0 mm
21:41 4.9 °C -3.9 °C 1034.8 hPa WSW 3.7 km/h 3.7 km/h 53 % 0.0 mm
21:45 0.8 °C -5.4 °C 1033.7 hPa Calm   1.6 km/h 63 % 0.0 mm
21:46 4.9 °C -3.9 °C 1034.8 hPa SW 3.7 km/h 3.9 km/h 53 % 0.0 mm
21:51 4.5 °C -4.3 °C 1034.8 hPa SW 3.9 km/h 3.9 km/h 53 % 0.0 mm
21:55 0.7 °C -5.3 °C 1033.7 hPa Calm   1.6 km/h 64 % 0.0 mm
21:56 4.5 °C -4.3 °C 1034.8 hPa WSW 3.9 km/h 3.9 km/h 53 % 0.0 mm
22:01 4.5 °C -4.3 °C 1034.8 hPa WSW 3.7 km/h 3.7 km/h 53 % 0.0 mm
22:05 0.7 °C -5.3 °C 1033.7 hPa Calm     64 % 0.0 mm
22:06 4.4 °C -4.1 °C 1034.8 hPa Calm     54 % 0.0 mm
22:11 4.3 °C -4.2 °C 1034.8 hPa Calm     54 % 0.0 mm
22:15 0.7 °C -5.3 °C 1033.7 hPa Calm   1.6 km/h 64 % 0.0 mm
22:16 4.4 °C -4.1 °C 1034.8 hPa WSW 1.9 km/h 2.3 km/h 54 % 0.0 mm
22:21 4.4 °C -4.1 °C 1034.8 hPa Calm     54 % 0.0 mm
22:25 0.8 °C -5.1 °C 1033.7 hPa Calm   3.2 km/h 65 % 0.0 mm
22:26 4.3 °C -3.9 °C 1034.8 hPa North 1.9 km/h   55 % 0.0 mm
22:31 4.1 °C -4.2 °C 1034.8 hPa NE 3.7 km/h 3.7 km/h 55 % 0.0 mm
22:35 0.7 °C -5.3 °C 1033.7 hPa Calm     64 % 0.0 mm
22:36 4.0 °C -4.2 °C 1034.8 hPa NNE 2.6 km/h   55 % 0.0 mm
22:41 4.1 °C -3.9 °C 1034.8 hPa NNE 1.9 km/h   56 % 0.0 mm
22:45 0.6 °C -5.2 °C 1033.7 hPa Calm     65 % 0.0 mm
22:46 3.9 °C -4.3 °C 1034.8 hPa Calm     55 % 0.0 mm
22:51 3.8 °C -4.2 °C 1034.8 hPa Calm     56 % 0.0 mm
22:55 0.0 °C -6.0 °C 1033.7 hPa Calm   3.2 km/h 64 % 0.0 mm
22:56 3.8 °C -4.2 °C 1034.8 hPa Calm     56 % 0.0 mm
23:01 3.7 °C -4.3 °C 1034.8 hPa Calm     56 % 0.0 mm
23:05 0.2 °C -5.6 °C 1033.7 hPa West 1.6 km/h 3.2 km/h 65 % 0.0 mm
23:11 3.6 °C -4.4 °C 1034.8 hPa SSW 1.9 km/h 1.9 km/h 56 % 0.0 mm
23:15 0.2 °C -5.6 °C 1033.7 hPa Calm   3.2 km/h 65 % 0.0 mm
23:16 3.5 °C -4.4 °C 1034.8 hPa Calm     56 % 0.0 mm
23:21 3.4 °C -4.3 °C 1034.8 hPa Calm     57 % 0.0 mm
23:25 0.2 °C -5.6 °C 1033.7 hPa Calm   3.2 km/h 65 % 0.0 mm
23:26 3.3 °C -4.4 °C 1034.8 hPa Calm     57 % 0.0 mm
23:31 3.2 °C -4.5 °C 1034.8 hPa Calm     57 % 0.0 mm
23:35 0.1 °C -5.5 °C 1033.7 hPa Calm   1.6 km/h 66 % 0.0 mm
23:36 3.2 °C -4.3 °C 1034.8 hPa Calm     58 % 0.0 mm
23:45 0.0 °C -5.8 °C 1033.7 hPa WSW 1.6 km/h 3.2 km/h 65 % 0.0 mm
23:46 3.0 °C -4.4 °C 1034.8 hPa SSW 1.9 km/h 1.9 km/h 58 % 0.0 mm
23:51 2.9 °C -4.6 °C 1034.8 hPa Calm     58 % 0.0 mm
23:55 0.1 °C -5.7 °C 1033.7 hPa WSW 1.6 km/h 3.2 km/h 65 % 0.0 mm
23:56 2.8 °C -4.7 °C 1034.8 hPa Calm     58 % 0.0 mm
Meteo Sesrovires
Elogis d' Weather Underground - 4.25 mb

Guio original per  Jim McMurry - jmcmurry@mwt.net Adaptat per a la plantilla per  Wim van der Kuil - Leuven-Template.eu

Trobareu la nostra informacio del temps tambe a:

Weather Underground

AWEKAS